Time;durP1;ratioP1;P1;durP2;ratioP2;P2;SDS_P1;SDS_P2;PMS_P1;PMS_P2;Temp;Humidity;BMP_temperature;BMP_pressure;BME280_temperature;BME280_humidity;BME280_pressure;Samples;Min_cycle;Max_cycle;Signal;HPM_P1;HPM_P2
2023/12/28 00:01:26;;;;;;;18.77;7.80;;;11.60;99.90;;;;;;7288657;19;20198;-81
2023/12/28 00:03:52;;;;;;;9.77;3.50;;;11.70;99.90;;;;;;7289030;19;20185;-81
2023/12/28 00:06:18;;;;;;;8.27;3.70;;;11.80;99.90;;;;;;7287695;19;20558;-81
2023/12/28 00:08:44;;;;;;;13.10;5.13;;;11.80;99.90;;;;;;7310276;19;20177;-81
2023/12/28 00:11:09;;;;;;;18.77;8.20;;;11.80;99.90;;;;;;7288830;19;20188;-81
2023/12/28 00:13:35;;;;;;;18.93;7.77;;;11.80;99.90;;;;;;7287277;19;20633;-82
2023/12/28 00:16:01;;;;;;;9.77;3.50;;;11.70;99.90;;;;;;7288027;19;20255;-81
2023/12/28 00:18:27;;;;;;;33.00;14.20;;;11.70;99.90;;;;;;7287463;19;20696;-82
2023/12/28 00:20:53;;;;;;;7.77;3.37;;;11.70;99.90;;;;;;7286444;19;20196;-81
2023/12/28 00:23:20;;;;;;;6.33;2.97;;;11.70;99.90;;;;;;7287687;19;20187;-81
2023/12/28 00:25:46;;;;;;;6.67;2.80;;;11.80;99.90;;;;;;7304023;19;20189;-81
2023/12/28 00:28:12;;;;;;;7.30;2.80;;;11.80;99.90;;;;;;7309663;19;20189;-81
2023/12/28 00:30:38;;;;;;;7.60;2.70;;;11.90;99.90;;;;;;7284615;19;20196;-82
2023/12/28 00:33:04;;;;;;;6.37;2.60;;;11.90;99.90;;;;;;7284725;19;20189;-81
2023/12/28 00:35:32;;;;;;;5.87;2.53;;;11.80;99.90;;;;;;7286418;19;20550;-81
2023/12/28 00:37:58;;;;;;;6.70;2.57;;;11.80;99.90;;;;;;7286548;19;20275;-81
2023/12/28 00:40:24;;;;;;;7.60;2.90;;;11.80;99.90;;;;;;7288966;19;20192;-81
2023/12/28 00:42:49;;;;;;;6.67;2.53;;;11.80;99.90;;;;;;7287587;19;20291;-81
2023/12/28 00:45:15;;;;;;;7.20;2.63;;;11.90;99.90;;;;;;7303456;19;20660;-80
2023/12/28 00:47:43;;;;;;;7.03;2.90;;;11.80;99.90;;;;;;7300836;19;20196;-82
2023/12/28 00:50:11;;;;;;;7.27;2.80;;;11.80;99.90;;;;;;7287402;19;20297;-81
2023/12/28 00:52:37;;;;;;;6.07;2.60;;;11.80;99.90;;;;;;7287781;19;20206;-82
2023/12/28 00:55:04;;;;;;;6.33;2.83;;;11.80;99.90;;;;;;7287159;19;20607;-81
2023/12/28 00:57:30;;;;;;;7.57;3.00;;;11.80;99.90;;;;;;7286886;19;20275;-81
2023/12/28 00:59:56;;;;;;;6.97;2.80;;;11.80;99.90;;;;;;7286441;19;20233;-81
2023/12/28 01:02:22;;;;;;;9.77;2.80;;;11.80;99.90;;;;;;7285873;19;20196;-81
2023/12/28 01:04:47;;;;;;;6.27;2.63;;;11.80;99.90;;;;;;7285301;19;20185;-81
2023/12/28 01:07:13;;;;;;;7.80;2.90;;;11.80;99.90;;;;;;7308847;19;20192;-82
2023/12/28 01:09:39;;;;;;;9.17;2.87;;;11.80;99.90;;;;;;7287714;19;20234;-82
2023/12/28 01:12:05;;;;;;;7.37;2.53;;;11.80;99.90;;;;;;7287695;19;20214;-82
2023/12/28 01:14:32;;;;;;;9.20;2.80;;;11.80;99.90;;;;;;7286138;19;20556;-81
2023/12/28 01:16:58;;;;;;;8.60;3.00;;;11.80;99.90;;;;;;7286107;19;20182;-82
2023/12/28 01:19:24;;;;;;;9.43;3.10;;;11.80;99.90;;;;;;7285864;19;20556;-81
2023/12/28 01:21:50;;;;;;;8.57;2.60;;;11.80;99.90;;;;;;7286508;19;20217;-81
2023/12/28 01:24:16;;;;;;;9.00;2.80;;;11.80;99.90;;;;;;7304007;19;20650;-80
2023/12/28 01:26:42;;;;;;;8.77;3.00;;;11.80;99.90;;;;;;7299691;19;20704;-81
2023/12/28 01:29:08;;;;;;;6.80;2.70;;;11.70;99.90;;;;;;7284009;19;20198;-81
2023/12/28 01:31:34;;;;;;;7.00;2.40;;;11.70;99.90;;;;;;7285646;19;20195;-82
2023/12/28 01:34:00;;;;;;;8.27;2.60;;;11.70;99.90;;;;;;7285712;19;20595;-81
2023/12/28 01:36:26;;;;;;;7.07;2.70;;;11.70;99.90;;;;;;7285783;19;20184;-81
2023/12/28 01:38:52;;;;;;;8.07;2.80;;;11.70;99.90;;;;;;7287211;19;20673;-81
2023/12/28 01:41:18;;;;;;;6.97;2.40;;;11.70;99.90;;;;;;7285757;19;20208;-81
2023/12/28 01:43:44;;;;;;;10.17;2.83;;;11.80;99.90;;;;;;7307738;19;20675;-81
2023/12/28 01:46:28;;;;;;;8.87;2.73;;;11.80;99.90;;;;;;7285227;19;20206;-81
2023/12/28 01:48:55;;;;;;;8.27;2.50;;;11.80;99.90;;;;;;7183203;19;2006319;-81
2023/12/28 01:51:23;;;;;;;8.10;2.40;;;11.70;99.90;;;;;;7285510;19;20184;-81
2023/12/28 01:53:51;;;;;;;6.00;2.40;;;11.70;99.90;;;;;;7284472;19;20186;-81
2023/12/28 01:56:19;;;;;;;6.57;2.30;;;11.70;99.90;;;;;;7285719;19;20200;-81
2023/12/28 01:58:48;;;;;;;7.40;2.50;;;11.70;99.90;;;;;;7306300;19;20218;-78
2023/12/28 02:01:14;;;;;;;9.80;2.57;;;11.70;99.90;;;;;;7284677;19;20199;-82
2023/12/28 02:03:40;;;;;;;9.27;2.40;;;11.70;99.90;;;;;;7285168;19;20563;-81
2023/12/28 02:06:09;;;;;;;7.00;2.20;;;11.70;99.90;;;;;;7282361;19;20211;-82
2023/12/28 02:08:34;;;;;;;9.50;2.87;;;11.70;99.90;;;;;;7286153;19;20726;-82
2023/12/28 02:11:00;;;;;;;6.23;2.07;;;11.60;99.90;;;;;;7284914;19;20189;-81
2023/12/28 02:13:26;;;;;;;8.90;2.60;;;11.60;99.90;;;;;;7281497;19;20192;-81
2023/12/28 02:15:58;;;;;;;6.27;2.10;;;11.70;99.90;;;;;;7284861;19;20199;-82
2023/12/28 02:18:33;;;;;;;7.47;2.30;;;11.70;99.90;;;;;;7284198;19;20188;-81
2023/12/28 02:21:02;;;;;;;8.43;2.80;;;11.70;99.90;;;;;;7285553;19;20186;-82
2023/12/28 02:23:28;;;;;;;8.63;2.50;;;11.80;99.90;;;;;;7284127;19;20219;-80
2023/12/28 02:25:53;;;;;;;9.13;2.50;;;11.80;99.90;;;;;;7282799;19;20212;-81
2023/12/28 02:28:19;;;;;;;6.73;2.60;;;11.80;99.90;;;;;;7284220;19;20204;-80
2023/12/28 02:30:45;;;;;;;7.43;2.30;;;11.70;99.90;;;;;;7305626;19;20252;-80
2023/12/28 02:33:19;;;;;;;6.30;2.33;;;11.70;99.90;;;;;;7281820;19;20203;-81
2023/12/28 02:36:08;;;;;;;9.70;2.40;;;11.70;99.90;;;;;;7284245;19;20663;-80
2023/12/28 02:38:38;;;;;;;7.53;2.40;;;11.70;99.90;;;;;;7180852;19;2004474;-81
2023/12/28 02:41:04;;;;;;;9.00;2.40;;;11.70;99.90;;;;;;7286257;19;20231;-80
2023/12/28 02:43:30;;;;;;;11.17;2.50;;;11.80;99.90;;;;;;7283791;19;20187;-80
2023/12/28 02:45:56;;;;;;;8.63;3.13;;;11.80;99.90;;;;;;7283480;19;21066;-81
2023/12/28 02:48:25;;;;;;;8.93;2.37;;;11.80;99.90;;;;;;7282878;19;20224;-80
2023/12/28 02:50:51;;;;;;;7.77;2.70;;;11.80;99.90;;;;;;7283087;19;20313;-80
2023/12/28 02:53:17;;;;;;;5.43;2.10;;;11.70;99.90;;;;;;7284871;19;20217;-80
2023/12/28 02:55:43;;;;;;;9.73;2.40;;;11.80;99.90;;;;;;7306918;19;20189;-80
2023/12/28 02:58:08;;;;;;;9.67;2.30;;;11.90;99.90;;;;;;7279972;19;20181;-81
2023/12/28 03:00:34;;;;;;;6.07;2.20;;;12.00;99.90;;;;;;7284802;19;20189;-81
2023/12/28 03:03:00;;;;;;;7.20;1.93;;;11.90;99.90;;;;;;7283690;19;20224;-80
2023/12/28 03:05:27;;;;;;;10.10;2.10;;;11.90;99.90;;;;;;7281337;19;20218;-80
2023/12/28 03:07:55;;;;;;;9.17;2.50;;;11.90;99.90;;;;;;7283673;19;20664;-80
2023/12/28 03:10:21;;;;;;;7.77;2.13;;;11.90;99.90;;;;;;7281969;19;20253;-80
2023/12/28 03:12:46;;;;;;;9.47;2.30;;;11.80;99.90;;;;;;7290932;19;20662;-80
2023/12/28 03:15:13;;;;;;;10.00;2.13;;;11.90;99.90;;;;;;7302890;19;20185;-80
2023/12/28 03:17:38;;;;;;;13.83;2.60;;;11.90;99.90;;;;;;7282048;19;20173;-80
2023/12/28 03:20:05;;;;;;;10.97;2.33;;;11.90;99.90;;;;;;7283018;19;20556;-80
2023/12/28 03:22:31;;;;;;;9.07;2.30;;;11.90;99.90;;;;;;7281254;19;20210;-80
2023/12/28 03:24:56;;;;;;;8.37;2.43;;;11.90;99.90;;;;;;7285730;19;20562;-81
2023/12/28 03:27:22;;;;;;;7.70;1.83;;;12.00;99.90;;;;;;7289035;19;20218;-81
2023/12/28 03:29:48;;;;;;;10.30;2.40;;;12.00;99.90;;;;;;7289221;19;20678;-80
2023/12/28 03:32:14;;;;;;;8.10;2.50;;;12.10;99.90;;;;;;7310962;19;20202;-81
2023/12/28 03:34:40;;;;;;;14.03;2.60;;;12.00;99.90;;;;;;7289781;19;20539;-81
2023/12/28 03:37:05;;;;;;;9.90;2.40;;;12.00;99.90;;;;;;7289833;19;20194;-81
2023/12/28 03:39:33;;;;;;;9.47;2.20;;;11.90;99.90;;;;;;7289041;19;20181;-80
2023/12/28 03:41:58;;;;;;;9.30;2.10;;;11.80;99.90;;;;;;7288600;19;20256;-80
2023/12/28 03:44:24;;;;;;;8.13;2.33;;;11.80;99.90;;;;;;7289227;19;20188;-79
2023/12/28 03:46:51;;;;;;;8.73;1.90;;;11.90;99.90;;;;;;7287030;19;20195;-79
2023/12/28 03:49:20;;;;;;;11.10;2.27;;;11.80;99.90;;;;;;7296149;19;20214;-79
2023/12/28 03:51:49;;;;;;;10.10;1.80;;;11.80;99.90;;;;;;7297239;19;20181;-81
2023/12/28 03:54:19;;;;;;;11.67;2.30;;;11.70;99.90;;;;;;7310008;19;20184;-81
2023/12/28 03:56:47;;;;;;;13.13;2.20;;;11.70;99.90;;;;;;7286634;19;20259;-80
2023/12/28 03:59:15;;;;;;;10.90;2.27;;;11.70;99.90;;;;;;7287253;19;21034;-80
2023/12/28 04:01:40;;;;;;;14.97;2.70;;;11.70;99.90;;;;;;7288397;19;20184;-80
2023/12/28 04:04:06;;;;;;;11.57;2.33;;;11.80;99.90;;;;;;7285805;19;20198;-80
2023/12/28 04:06:32;;;;;;;10.60;2.20;;;11.90;99.90;;;;;;7285805;19;20186;-80
2023/12/28 04:08:58;;;;;;;12.17;2.03;;;12.00;99.90;;;;;;7288060;19;20194;-81
2023/12/28 04:11:23;;;;;;;11.70;1.93;;;12.00;99.90;;;;;;7283319;19;20180;-80
2023/12/28 04:13:50;;;;;;;12.47;2.40;;;12.00;99.90;;;;;;7283731;19;20189;-80
2023/12/28 04:16:16;;;;;;;12.83;1.87;;;12.10;99.90;;;;;;7303436;19;20531;-79
2023/12/28 04:18:42;;;;;;;10.37;2.43;;;12.10;99.90;;;;;;7297730;19;20176;-80
2023/12/28 04:21:10;;;;;;;10.00;1.90;;;12.00;99.90;;;;;;7287575;19;20185;-81
2023/12/28 04:23:36;;;;;;;10.47;2.27;;;12.00;99.90;;;;;;7287375;19;21084;-80
2023/12/28 04:26:02;;;;;;;13.67;2.00;;;12.00;99.90;;;;;;7286472;19;20213;-80
2023/12/28 04:28:28;;;;;;;15.97;2.60;;;12.10;99.90;;;;;;7285271;19;20209;-81
2023/12/28 04:30:54;;;;;;;13.23;2.63;;;12.00;99.90;;;;;;7286236;19;20185;-81
2023/12/28 04:33:20;;;;;;;11.13;2.07;;;12.00;99.90;;;;;;7286787;19;20180;-80
2023/12/28 04:35:46;;;;;;;13.10;2.30;;;12.00;99.90;;;;;;7298448;19;20208;-80
2023/12/28 04:38:13;;;;;;;15.03;2.20;;;11.90;99.90;;;;;;7302679;19;20277;-80
2023/12/28 04:40:38;;;;;;;11.93;2.27;;;11.90;99.90;;;;;;7286738;19;21309;-81
2023/12/28 04:43:04;;;;;;;13.87;2.17;;;11.90;99.90;;;;;;7285685;19;20210;-81
2023/12/28 04:45:30;;;;;;;14.00;2.30;;;11.70;99.90;;;;;;7286439;19;20264;-80
2023/12/28 04:47:57;;;;;;;13.83;2.13;;;11.70;99.90;;;;;;7286417;19;20199;-81
2023/12/28 04:50:23;;;;;;;13.27;2.27;;;11.70;99.90;;;;;;7283616;19;20199;-80
2023/12/28 04:52:49;;;;;;;14.63;2.20;;;11.70;99.90;;;;;;7285011;19;20531;-80
2023/12/28 04:55:15;;;;;;;12.87;2.47;;;11.60;99.90;;;;;;7305991;19;20678;-80
2023/12/28 04:57:43;;;;;;;12.43;2.33;;;11.50;99.90;;;;;;7286514;19;20199;-80
2023/12/28 05:00:10;;;;;;;10.93;2.33;;;11.50;99.90;;;;;;7284571;19;20198;-80
2023/12/28 05:02:36;;;;;;;10.37;2.10;;;11.60;99.90;;;;;;7286125;19;20218;-81
2023/12/28 05:05:01;;;;;;;14.67;2.33;;;11.60;99.90;;;;;;7285952;19;20192;-80
2023/12/28 05:07:27;;;;;;;10.13;2.00;;;11.50;99.90;;;;;;7285381;19;20335;-80
2023/12/28 05:09:53;;;;;;;16.87;2.73;;;11.40;99.90;;;;;;7285025;19;20196;-80
2023/12/28 05:12:19;;;;;;;13.67;2.10;;;11.40;99.90;;;;;;7286029;19;20199;-80
2023/12/28 05:14:44;;;;;;;14.33;2.20;;;11.40;99.90;;;;;;7308520;19;20181;-81
2023/12/28 05:17:10;;;;;;;19.53;2.70;;;11.40;99.90;;;;;;7284696;19;20221;-80
2023/12/28 05:19:36;;;;;;;17.90;2.40;;;11.40;99.90;;;;;;7286394;19;20215;-81
2023/12/28 05:22:03;;;;;;;14.93;2.73;;;11.40;99.90;;;;;;7286921;19;20672;-80
2023/12/28 05:24:29;;;;;;;11.13;2.00;;;11.30;99.90;;;;;;7286203;19;20180;-80
2023/12/28 05:26:55;;;;;;;12.07;2.00;;;11.30;99.90;;;;;;7285466;19;20196;-80
2023/12/28 05:29:21;;;;;;;14.17;2.10;;;11.30;99.90;;;;;;7287970;19;20211;-81
2023/12/28 05:31:47;;;;;;;15.10;3.10;;;11.30;99.90;;;;;;7294941;19;20202;-80
2023/12/28 05:34:13;;;;;;;18.53;2.37;;;11.40;99.90;;;;;;7304690;19;20210;-80
2023/12/28 05:36:41;;;;;;;16.70;2.47;;;11.40;99.90;;;;;;7284484;19;20201;-81
2023/12/28 05:39:09;;;;;;;11.37;2.27;;;11.50;99.90;;;;;;7285735;19;20213;-80
2023/12/28 05:41:35;;;;;;;10.20;2.03;;;11.70;99.90;;;;;;7285206;19;20234;-80
2023/12/28 05:44:00;;;;;;;14.40;2.27;;;11.70;99.90;;;;;;7285528;19;20571;-80
2023/12/28 05:46:26;;;;;;;15.57;2.53;;;11.80;99.90;;;;;;7284201;19;20197;-80
2023/12/28 05:48:52;;;;;;;13.90;2.53;;;11.80;99.90;;;;;;7284703;19;20542;-80
2023/12/28 05:51:18;;;;;;;11.23;2.40;;;11.80;99.90;;;;;;7285800;19;20200;-80
2023/12/28 05:53:44;;;;;;;10.03;2.30;;;11.90;99.90;;;;;;7307442;19;20208;-80
2023/12/28 05:56:10;;;;;;;15.57;2.70;;;11.90;99.90;;;;;;7284203;19;20184;-80
2023/12/28 05:58:36;;;;;;;15.50;2.30;;;11.90;99.90;;;;;;7284785;19;20226;-80
2023/12/28 06:01:04;;;;;;;12.67;2.07;;;11.80;99.90;;;;;;7284219;19;20225;-81
2023/12/28 06:03:31;;;;;;;12.87;2.17;;;11.80;99.90;;;;;;7284845;19;20194;-81
2023/12/28 06:05:57;;;;;;;16.10;2.70;;;11.70;99.90;;;;;;7283896;19;20557;-80
2023/12/28 06:08:23;;;;;;;11.37;2.00;;;11.70;99.90;;;;;;7284607;19;20187;-80
2023/12/28 06:10:49;;;;;;;13.57;2.37;;;11.60;99.90;;;;;;7285424;19;20189;-80
2023/12/28 06:13:15;;;;;;;15.23;2.43;;;11.60;99.90;;;;;;7305291;19;20268;-80
2023/12/28 06:15:40;;;;;;;21.33;2.80;;;11.50;99.90;;;;;;7283787;19;20185;-80
2023/12/28 06:18:06;;;;;;;14.30;2.10;;;11.50;99.90;;;;;;7285514;19;20244;-80
2023/12/28 06:20:32;;;;;;;17.20;2.60;;;11.40;99.90;;;;;;7284647;19;20803;-80
2023/12/28 06:22:58;;;;;;;13.83;2.10;;;11.40;99.90;;;;;;7283770;19;20195;-80
2023/12/28 06:25:24;;;;;;;15.20;2.13;;;11.30;99.90;;;;;;7283412;19;20218;-80
2023/12/28 06:27:49;;;;;;;17.37;2.50;;;11.30;99.90;;;;;;7282677;19;20684;-80
2023/12/28 06:30:15;;;;;;;16.93;2.20;;;11.40;99.90;;;;;;7306638;19;20210;-81
2023/12/28 06:32:41;;;;;;;21.43;2.73;;;11.40;99.90;;;;;;7284907;19;20196;-80
2023/12/28 06:35:07;;;;;;;15.90;2.20;;;11.40;99.90;;;;;;7283846;19;20215;-80
2023/12/28 06:37:33;;;;;;;19.77;3.00;;;11.30;99.90;;;;;;7284562;19;20264;-80
2023/12/28 06:39:58;;;;;;;16.57;2.43;;;11.30;99.90;;;;;;7283089;19;20584;-80
2023/12/28 06:42:24;;;;;;;11.57;2.17;;;11.30;99.90;;;;;;7283954;19;20197;-80
2023/12/28 06:44:50;;;;;;;21.07;2.60;;;11.30;99.90;;;;;;7283408;19;20199;-80
2023/12/28 06:47:16;;;;;;;20.43;2.57;;;11.20;99.90;;;;;;7304417;19;20184;-80
2023/12/28 06:49:41;;;;;;;15.47;1.87;;;11.20;99.90;;;;;;7284096;19;20648;-80
2023/12/28 06:52:07;;;;;;;14.97;2.27;;;11.10;99.90;;;;;;7284330;19;20651;-79
2023/12/28 06:54:33;;;;;;;15.77;2.30;;;11.10;99.90;;;;;;7281543;19;20192;-81
2023/12/28 06:56:59;;;;;;;14.80;2.13;;;11.10;99.90;;;;;;7283939;19;20189;-80
2023/12/28 06:59:25;;;;;;;18.33;2.80;;;11.10;99.90;;;;;;7287374;19;20670;-79
2023/12/28 07:01:51;;;;;;;10.07;2.10;;;11.00;99.90;;;;;;7288806;19;20232;-81
2023/12/28 07:04:17;;;;;;;16.97;2.40;;;11.10;99.90;;;;;;7306814;19;20654;-80
2023/12/28 07:06:44;;;;;;;15.07;2.40;;;11.00;99.90;;;;;;7311611;19;20197;-80
2023/12/28 07:09:10;;;;;;;15.80;2.37;;;11.10;99.90;;;;;;7289141;19;20248;-80
2023/12/28 07:11:35;;;;;;;17.70;2.80;;;11.10;99.90;;;;;;7290724;19;20192;-80
2023/12/28 07:14:01;;;;;;;20.60;3.73;;;11.00;99.90;;;;;;7290578;19;20683;-80
2023/12/28 07:16:28;;;;;;;13.57;2.77;;;11.00;99.90;;;;;;7290387;19;20263;-80
2023/12/28 07:18:53;;;;;;;18.93;2.40;;;10.90;99.90;;;;;;7289099;19;20211;-79
2023/12/28 07:21:19;;;;;;;18.43;2.87;;;11.00;99.90;;;;;;7289339;19;20569;-79
2023/12/28 07:23:49;;;;;;;15.37;2.23;;;11.00;99.90;;;;;;7309329;19;20744;-81
2023/12/28 07:26:15;;;;;;;21.97;2.90;;;11.00;99.90;;;;;;7290838;19;20188;-80
2023/12/28 07:28:44;;;;;;;18.70;2.80;;;11.00;99.90;;;;;;7288670;19;21002;-80
2023/12/28 07:31:10;;;;;;;20.27;2.33;;;11.00;99.90;;;;;;7289312;19;20764;-80
2023/12/28 07:33:36;;;;;;;15.67;2.47;;;11.00;99.90;;;;;;7289267;19;20619;-80
2023/12/28 07:36:03;;;;;;;20.37;2.80;;;11.10;99.90;;;;;;7288920;19;20188;-80
2023/12/28 07:38:29;;;;;;;22.00;3.23;;;11.00;99.90;;;;;;7289286;19;20191;-80
2023/12/28 07:40:55;;;;;;;20.33;2.50;;;11.00;99.90;;;;;;7288279;19;20193;-80
2023/12/28 07:43:20;;;;;;;20.80;2.50;;;11.00;99.90;;;;;;7287711;19;20220;-81
2023/12/28 07:45:46;;;;;;;14.77;2.80;;;11.00;99.90;;;;;;7310257;19;20202;-80
2023/12/28 07:48:12;;;;;;;18.90;2.50;;;10.90;99.90;;;;;;7296436;19;20195;-81
2023/12/28 07:50:37;;;;;;;18.53;2.60;;;11.00;99.90;;;;;;7287218;19;20193;-80
2023/12/28 07:53:03;;;;;;;36.73;4.93;;;11.10;99.90;;;;;;7287173;19;20214;-80
2023/12/28 07:55:29;;;;;;;14.77;2.33;;;11.10;99.90;;;;;;7285108;19;20320;-80
2023/12/28 07:57:55;;;;;;;36.50;5.30;;;11.10;99.90;;;;;;7289296;19;20306;-79
2023/12/28 08:00:21;;;;;;;14.77;2.50;;;11.20;99.90;;;;;;7286974;19;20195;-80
2023/12/28 08:02:46;;;;;;;18.20;3.30;;;11.10;99.90;;;;;;7306786;19;20656;-79
2023/12/28 08:05:12;;;;;;;14.57;2.10;;;11.20;99.90;;;;;;7298906;19;20200;-80
2023/12/28 08:07:38;;;;;;;19.07;2.77;;;11.10;99.90;;;;;;7286124;19;20198;-81
2023/12/28 08:10:05;;;;;;;12.67;2.30;;;11.10;99.90;;;;;;7287659;19;20186;-80
2023/12/28 08:12:31;;;;;;;17.30;2.80;;;11.10;99.90;;;;;;7284522;19;20215;-80
2023/12/28 08:14:57;;;;;;;20.43;2.60;;;11.10;99.90;;;;;;7288005;19;20601;-80
2023/12/28 08:17:22;;;;;;;16.10;2.53;;;11.20;99.90;;;;;;7288924;19;20192;-80
2023/12/28 08:19:48;;;;;;;16.67;2.23;;;11.20;99.90;;;;;;7289186;19;20545;-79
2023/12/28 08:22:14;;;;;;;18.03;3.33;;;11.30;99.90;;;;;;7311046;19;20729;-80
2023/12/28 08:24:39;;;;;;;18.13;2.43;;;11.30;99.90;;;;;;7287777;19;20182;-80
2023/12/28 08:27:05;;;;;;;12.77;2.33;;;11.30;99.90;;;;;;7286396;19;20198;-81
2023/12/28 08:29:31;;;;;;;19.63;2.87;;;11.40;99.90;;;;;;7288441;19;20233;-81
2023/12/28 08:31:56;;;;;;;18.27;2.70;;;11.40;99.90;;;;;;7288117;19;20195;-82
2023/12/28 08:34:26;;;;;;;18.17;2.40;;;11.50;99.90;;;;;;7286396;19;20203;-81
2023/12/28 08:36:52;;;;;;;18.23;3.33;;;11.50;99.90;;;;;;7287184;19;20187;-80
2023/12/28 08:39:18;;;;;;;14.30;2.50;;;11.60;99.90;;;;;;7290347;19;21008;-85
2023/12/28 08:41:44;;;;;;;17.07;1.97;;;11.70;99.90;;;;;;7312065;19;20195;-84
2023/12/28 08:44:10;;;;;;;20.53;2.97;;;11.70;99.90;;;;;;7289480;19;20190;-84
2023/12/28 08:46:35;;;;;;;16.40;3.17;;;11.70;99.90;;;;;;7288532;19;20196;-85
2023/12/28 08:49:01;;;;;;;17.53;2.80;;;11.70;99.90;;;;;;7288199;19;20188;-84
2023/12/28 08:51:27;;;;;;;19.13;2.47;;;11.70;99.90;;;;;;7288729;19;20616;-82
2023/12/28 08:53:52;;;;;;;19.23;3.17;;;11.70;99.90;;;;;;7287092;19;20645;-84
2023/12/28 08:56:22;;;;;;;16.30;2.43;;;11.80;99.90;;;;;;7289187;19;20191;-81
2023/12/28 08:58:49;;;;;;;16.67;2.53;;;11.80;99.90;;;;;;7288107;19;20192;-80
2023/12/28 09:01:19;;;;;;;18.33;2.40;;;11.70;99.90;;;;;;7303185;19;20188;-81
2023/12/28 09:03:46;;;;;;;18.53;2.43;;;11.70;99.90;;;;;;7282171;19;20193;-81
2023/12/28 09:06:12;;;;;;;17.03;2.83;;;11.70;99.90;;;;;;7281650;19;20185;-80
2023/12/28 09:08:40;;;;;;;17.67;2.20;;;11.70;99.90;;;;;;7280874;19;20189;-81
2023/12/28 09:11:06;;;;;;;19.53;3.00;;;11.70;99.90;;;;;;7280820;19;20181;-80
2023/12/28 09:13:31;;;;;;;19.47;2.60;;;11.90;99.90;;;;;;7279188;19;20212;-79
2023/12/28 09:15:57;;;;;;;19.87;2.87;;;12.00;99.90;;;;;;7279210;19;20203;-80
2023/12/28 09:18:23;;;;;;;21.77;2.90;;;12.00;99.90;;;;;;7279339;19;20186;-79
2023/12/28 09:20:50;;;;;;;16.63;2.63;;;11.90;99.90;;;;;;7278055;19;20205;-79
2023/12/28 09:23:15;;;;;;;15.53;2.67;;;12.00;99.90;;;;;;7301212;19;20712;-80
2023/12/28 09:25:41;;;;;;;17.03;2.97;;;11.90;99.90;;;;;;7276314;19;20311;-79
2023/12/28 09:28:07;;;;;;;19.23;2.70;;;12.00;99.90;;;;;;7278060;19;20212;-79
2023/12/28 09:30:33;;;;;;;17.33;2.43;;;12.00;99.90;;;;;;7278148;19;20195;-80
2023/12/28 09:32:58;;;;;;;15.03;2.37;;;12.00;99.90;;;;;;7279717;19;20184;-80
2023/12/28 09:35:25;;;;;;;19.27;2.70;;;12.10;99.90;;;;;;7278447;19;20202;-79
2023/12/28 09:37:51;;;;;;;18.57;2.50;;;12.10;99.90;;;;;;7279538;19;20264;-80
2023/12/28 09:40:16;;;;;;;16.00;2.50;;;12.30;99.90;;;;;;7299637;19;20218;-79
2023/12/28 09:42:57;;;;;;;18.63;2.60;;;12.50;99.90;;;;;;7290597;19;20182;-80
2023/12/28 09:45:22;;;;;;;14.37;2.30;;;12.50;99.90;;;;;;7177233;19;2004551;-84
2023/12/28 09:47:50;;;;;;;20.33;3.00;;;12.30;99.90;;;;;;7283065;19;20189;-82
2023/12/28 09:50:18;;;;;;;17.57;2.50;;;12.40;99.90;;;;;;7302190;19;20203;-82
2023/12/28 09:52:44;;;;;;;17.83;3.10;;;12.60;99.90;;;;;;7280234;19;20273;-83
2023/12/28 09:55:10;;;;;;;16.83;2.33;;;12.60;99.90;;;;;;7279910;19;20199;-82
2023/12/28 09:57:37;;;;;;;21.60;2.70;;;12.60;99.90;;;;;;7278279;19;20209;-81
2023/12/28 10:00:06;;;;;;;14.20;2.43;;;12.60;99.90;;;;;;7279725;19;20189;-83
2023/12/28 10:02:40;;;;;;;17.20;2.40;;;12.70;99.90;;;;;;7281341;19;20190;-83
2023/12/28 10:05:06;;;;;;;20.03;2.40;;;12.70;99.90;;;;;;7279173;19;20188;-82
2023/12/28 10:07:40;;;;;;;12.63;2.20;;;12.60;99.90;;;;;;7279512;19;20550;-82
2023/12/28 10:10:06;;;;;;;20.17;3.07;;;12.70;99.90;;;;;;7280267;19;20220;-83
2023/12/28 10:12:33;;;;;;;19.57;2.80;;;12.70;99.90;;;;;;7280022;19;20193;-83
2023/12/28 10:14:59;;;;;;;15.73;2.27;;;12.80;99.90;;;;;;7279784;19;20269;-82
2023/12/28 10:17:26;;;;;;;17.43;2.23;;;12.90;99.90;;;;;;7279232;19;20690;-81
2023/12/28 10:19:52;;;;;;;18.73;3.20;;;12.90;99.90;;;;;;7280373;19;20177;-83
2023/12/28 10:22:19;;;;;;;19.00;2.90;;;12.90;99.90;;;;;;7282816;19;20189;-82
2023/12/28 10:24:46;;;;;;;17.03;2.63;;;13.00;99.90;;;;;;7299858;19;20563;-83
2023/12/28 10:27:14;;;;;;;20.37;2.80;;;13.00;99.90;;;;;;7276361;19;20189;-81
2023/12/28 10:29:39;;;;;;;22.27;2.73;;;13.10;99.90;;;;;;7279221;19;20258;-79
2023/12/28 10:32:05;;;;;;;15.30;2.10;;;13.20;99.90;;;;;;7277726;19;20195;-79
2023/12/28 10:34:31;;;;;;;18.63;2.63;;;13.40;99.90;;;;;;7273500;19;20191;-80
2023/12/28 10:36:59;;;;;;;19.80;3.27;;;13.50;99.90;;;;;;7278113;19;20692;-80
2023/12/28 10:39:26;;;;;;;20.20;2.93;;;13.60;99.90;;;;;;7277221;19;20197;-79
2023/12/28 10:41:55;;;;;;;18.90;3.03;;;13.70;99.90;;;;;;7277086;19;20215;-80
2023/12/28 10:44:23;;;;;;;20.37;3.10;;;13.90;99.90;;;;;;7277429;19;20285;-80
2023/12/28 10:46:54;;;;;;;15.67;2.77;;;14.00;99.90;;;;;;7274860;19;20218;-81
2023/12/28 10:49:24;;;;;;;17.53;2.77;;;14.00;99.90;;;;;;7276686;19;20309;-81
2023/12/28 10:51:53;;;;;;;16.37;2.97;;;14.20;99.90;;;;;;7276978;19;20283;-81
2023/12/28 10:54:45;;;;;;;20.93;3.10;;;14.20;99.90;;;;;;7275668;19;20186;-80
2023/12/28 10:57:33;;;;;;;23.97;3.80;;;14.40;99.90;;;;;;7274937;19;20274;-80
2023/12/28 11:00:11;;;;;;;19.77;3.17;;;14.30;99.90;;;;;;7172712;19;2004668;-80
2023/12/28 11:02:51;;;;;;;16.77;2.63;;;14.30;99.90;;;;;;7271106;19;20202;-81
2023/12/28 11:05:19;;;;;;;17.97;2.70;;;14.20;99.90;;;;;;7269859;19;20212;-80
2023/12/28 11:07:47;;;;;;;19.47;2.53;;;14.30;99.90;;;;;;7296658;19;20195;-80
2023/12/28 11:10:14;;;;;;;20.63;3.03;;;14.30;99.90;;;;;;7273886;19;20202;-81
2023/12/28 11:12:40;;;;;;;23.47;2.97;;;14.30;99.90;;;;;;7273108;19;20242;-80
2023/12/28 11:15:08;;;;;;;15.53;2.80;;;14.20;99.90;;;;;;7271165;19;20189;-79
2023/12/28 11:17:36;;;;;;;23.97;2.97;;;14.30;99.90;;;;;;7274093;19;20186;-79
2023/12/28 11:20:05;;;;;;;14.53;2.63;;;14.20;99.90;;;;;;7277765;19;20698;-79
2023/12/28 11:22:31;;;;;;;20.27;3.57;;;14.40;99.90;;;;;;7276806;19;20196;-80
2023/12/28 11:24:57;;;;;;;17.20;2.60;;;14.70;99.90;;;;;;7277389;19;20192;-79
2023/12/28 11:27:26;;;;;;;19.30;2.80;;;14.70;99.90;;;;;;7276753;19;20205;-79
2023/12/28 11:29:52;;;;;;;17.93;2.80;;;14.60;99.90;;;;;;7277544;19;20197;-80
2023/12/28 11:32:20;;;;;;;14.47;3.07;;;14.40;99.90;;;;;;7289318;19;20201;-80
2023/12/28 11:34:56;;;;;;;20.77;3.23;;;14.20;99.90;;;;;;7298935;19;20188;-79
2023/12/28 11:37:23;;;;;;;21.50;2.50;;;14.30;99.90;;;;;;7253651;19;20194;-80
2023/12/28 11:39:49;;;;;;;17.47;2.63;;;14.50;99.90;;;;;;7277656;19;20190;-79
2023/12/28 11:42:20;;;;;;;16.53;2.50;;;14.50;99.90;;;;;;7299185;19;20187;-79
2023/12/28 11:44:46;;;;;;;20.20;3.40;;;14.60;99.90;;;;;;7278932;19;20920;-79
2023/12/28 11:47:23;;;;;;;18.40;2.70;;;14.50;99.90;;;;;;7282518;19;20630;-79
2023/12/28 11:49:54;;;;;;;19.33;3.03;;;14.40;99.90;;;;;;7261853;19;20218;-80
2023/12/28 11:52:30;;;;;;;21.87;2.67;;;14.40;99.90;;;;;;7284029;19;20200;-79
2023/12/28 11:54:56;;;;;;;17.67;2.97;;;14.40;99.90;;;;;;7284155;19;20190;-81
2023/12/28 11:57:22;;;;;;;19.23;3.07;;;14.50;99.90;;;;;;7284081;19;20206;-80
2023/12/28 12:00:02;;;;;;;21.60;3.20;;;14.70;99.90;;;;;;7288602;19;20266;-80
2023/12/28 12:02:30;;;;;;;14.50;3.23;;;14.60;99.90;;;;;;7283158;19;20257;-79
2023/12/28 12:05:01;;;;;;;17.73;3.10;;;14.50;99.90;;;;;;7285999;19;20297;-81
2023/12/28 12:07:27;;;;;;;19.57;3.10;;;14.50;99.90;;;;;;7283730;19;20187;-81
2023/12/28 12:09:59;;;;;;;18.37;2.53;;;14.60;99.90;;;;;;7284697;19;20197;-82
2023/12/28 12:12:25;;;;;;;19.83;3.10;;;14.30;99.90;;;;;;7286137;19;20198;-81
2023/12/28 12:14:51;;;;;;;19.87;3.17;;;14.20;99.90;;;;;;7286980;19;20186;-82
2023/12/28 12:17:18;;;;;;;21.53;3.00;;;14.10;99.90;;;;;;7305398;19;20191;-81
2023/12/28 12:19:47;;;;;;;16.83;2.70;;;14.20;99.90;;;;;;7310619;19;20217;-82
2023/12/28 12:22:13;;;;;;;18.70;3.00;;;14.20;99.90;;;;;;7289488;19;20182;-81
2023/12/28 12:24:41;;;;;;;21.80;2.40;;;14.10;99.90;;;;;;7289856;19;20206;-82
2023/12/28 12:27:07;;;;;;;18.27;3.17;;;13.90;99.90;;;;;;7287732;19;20206;-82
2023/12/28 12:29:32;;;;;;;16.60;2.87;;;13.70;99.90;;;;;;7288599;19;20190;-81
2023/12/28 12:31:58;;;;;;;16.63;2.50;;;13.70;99.90;;;;;;7287894;19;20190;-82
2023/12/28 12:34:24;;;;;;;15.80;3.13;;;13.80;99.90;;;;;;7287316;19;20222;-82
2023/12/28 12:36:53;;;;;;;14.93;2.43;;;13.90;99.90;;;;;;7285839;19;20185;-81